• Join FlightAware (Why Join?)
  • Login
  • US Flag 
04:36PM EST


 

Airport Tracker/Info


-or-


 

Live Flight TrackerFlight Track Log ✈ SWA568 ✈ 12-May-2013 ✈ KBWI - KFLL

Flight Track Log - Related Links

Times and Time Zones

All times are in EDT time to prevent confusion due to time zone crossing. See the SWA568 flight status page for this flight to view local times or setup timezone preferences in your user account.

Time Position Orientation Groundspeed Altitude Reporting Facility
EDT Latitude Longitude Course Direction KTS MPH feet Rate Location/Type
07:21AM 39.1333 -76.7333 180° South 196 226 3,900  Level Potomac TRACON
07:23AM 39.0361 -76.6283 140° Southeast 275 316 8,300 2,640 Climbing Washington Center
07:24AM 38.9825 -76.5475 130° Southeast 285 328 11,200 2,280 Climbing Washington Center
07:25AM 38.9056 -76.5144 162° South 285 328 13,000 1,380 Climbing Washington Center
07:26AM 38.8181 -76.5108 178° South 306 352 14,000 960 Climbing Washington Center
07:27AM 38.6204 -76.8401 180° South  Level Estimated
07:27AM 38.7406 -76.5764 213° Southwest 297 342 15,000  Level Washington Center
07:28AM 38.6628 -76.6419 213° Southwest 317 365 17,600 2,160 Climbing Washington Center
07:29AM 38.5767 -76.7044 210° Southwest 334 384 19,300 2,280 Climbing Washington Center
07:30AM 38.4889 -76.7217 189° South 340 391 22,200 1,800 Climbing Washington Center
07:31AM 38.3869 -76.7069 174° South 351 404 23,000 360 Climbing Washington Center
07:32AM 38.2850 -76.6894 172° South 356 410 23,000 540 Level Washington Center
07:33AM 38.1831 -76.6747 174° South 370 426 24,100 1,560 Climbing Washington Center
07:34AM 38.0767 -76.6628 175° South 380 437 26,100 1,860 Climbing Washington Center
07:35AM 37.9747 -76.6481 174° South 380 437 27,800 1,560 Climbing Washington Center
07:36AM 37.8706 -76.6308 173° South 385 443 29,400 1,680 Climbing Washington Center
07:37AM 37.7683 -76.6217 176° South 385 443 31,200 1,560 Climbing Washington Center
07:38AM 37.6706 -76.6072 173° South 373 429 32,500 1,020 Climbing Washington Center
07:39AM 37.5725 -76.5953 174° South 362 417 33,300 840 Climbing Washington Center
07:40AM 37.4706 -76.5808 174° South 362 417 34,200 780 Climbing Washington Center
07:41AM 37.3703 -76.5692 175° South 367 422 34,900 360 Climbing Washington Center
07:42AM 37.2661 -76.5547 174° South 367 422 35,000  Climbing Washington Center
07:43AM 37.1622 -76.5169 164° South 367 422 35,000  Level Washington Center
07:44AM 37.0692 -76.4197 140° Southeast 392 451 35,000  Level Washington Center
07:45AM 36.9822 -76.3147 136° Southeast 418 481 35,000  Level Washington Center
07:46AM 36.8992 -76.2100 135° Southeast 428 493 35,000  Level Washington Center
07:47AM 36.8056 -76.1858 168° South 393 452 35,000  Level Washington Center
07:48AM 36.7156 -76.2294 201° Southwest 327 376 35,000  Level Washington Center
07:49AM 36.6319 -76.2753 204° Southwest 327 376 35,000  Level Washington Center
07:50AM 36.5419 -76.3158 200° South 338 389 35,000  Level Washington Center
07:51AM 36.4561 -76.3564 201° Southwest 343 395 35,000  Level Washington Center
07:52AM 36.3642 -76.3967 199° South 349 402 35,000  Level Washington Center
07:53AM 36.2719 -76.4422 202° Southwest 349 402 35,000  Level Washington Center
07:54AM 36.1797 -76.4825 199° South 349 402 35,000  Level Washington Center
07:55AM 36.0897 -76.5275 202° Southwest 349 402 35,000  Level Washington Center
07:56AM 35.9978 -76.5703 201° Southwest 349 402 35,000  Level Washington Center
07:57AM 35.9033 -76.6125 200° South 349 402 35,000  Level Washington Center
07:58AM 35.8111 -76.6550 200° South 349 402 35,000  Level Washington Center
07:59AM 35.7211 -76.6972 201° Southwest 349 402 35,000  Level Washington Center
08:00AM 35.6311 -76.7369 200° South 349 402 35,000  Level Washington Center
08:01AM 35.5533 -76.7944 211° Southwest 342 394 35,000  Level Washington Center
08:02AM 35.4919 -76.8753 227° Southwest 327 376 35,000  Level Washington Center
08:03AM 35.4283 -76.9558 226° Southwest 327 376 35,000  Level Washington Center
08:04AM 35.3628 -77.0386 226° Southwest 333 383 35,000  Level Washington Center
08:05AM 35.2992 -77.1164 225° Southwest 333 383 35,000 420 Level Washington Center
08:06AM 35.2089 -77.1606 202° Southwest 344 396 35,900 480 Climbing Washington Center
08:07AM 35.1144 -77.1994 199° South 344 396 36,000  Climbing Washington Center
08:08AM 35.0200 -77.2381 199° South 356 410 36,000  Level Washington Center
08:09AM 34.9236 -77.2767 198° South 356 410 36,000  Level Washington Center
08:10AM 34.8292 -77.3150 198° South 356 410 36,000  Level Washington Center
08:11AM 34.7389 -77.3536 199° South 356 410 36,000  Level Washington Center
08:12AM 34.6444 -77.3894 197° South 356 410 36,000  Level Washington Center
08:13AM 34.5522 -77.4278 199° South 356 410 36,000  Level Washington Center
08:14AM 34.4575 -77.4661 198° South 351 404 36,000  Level Washington Center
08:15AM 34.3611 -77.5042 198° South 351 404 36,000  Level Washington Center
08:16AM 34.2667 -77.5394 197° South 357 411 36,000  Level Washington Center
08:17AM 34.1700 -77.5775 198° South 362 417 36,000  Level Washington Center
08:18AM 34.0714 -77.6153 198° South 367 422 36,000  Level Washington Center
08:19AM 34.0292 -77.6308 197° South 369 425 36,000  Level Jacksonville Center
08:20AM 33.9328 -77.6692 198° South 369 425 36,000  Level Jacksonville Center
08:21AM 33.8361 -77.7072 198° South 375 432 36,000  Level Jacksonville Center
08:22AM 33.7356 -77.7483 199° South 375 432 36,000  Level Jacksonville Center
08:23AM 33.6369 -77.7839 197° South 380 437 36,000  Level Jacksonville Center
08:24AM 33.5386 -77.8244 199° South 380 437 36,000  Level Jacksonville Center
08:25AM 33.4294 -77.8656 197° South 374 430 36,000  Level Jacksonville Center
08:26AM 33.3311 -77.9058 199° South 374 430 36,000  Level Jacksonville Center
08:27AM 33.2322 -77.9436 198° South 374 430 36,000  Level Jacksonville Center
08:28AM 33.1356 -77.9814 198° South 374 430 36,000  Level Jacksonville Center
08:29AM 33.0350 -78.0189 197° South 374 430 36,000  Level Jacksonville Center
08:30AM 32.9361 -78.0542 197° South 374 430 36,000  Level Jacksonville Center
08:31AM 32.8394 -78.0939 199° South 374 430 36,000  Level Jacksonville Center
08:32AM 32.7408 -78.1311 198° South 374 430 36,000  Level Jacksonville Center
08:33AM 32.6419 -78.1683 198° South 374 430 36,000  Level Jacksonville Center
08:34AM 32.5433 -78.2081 199° South 379 436 36,000  Level Jacksonville Center
08:35AM 32.4444 -78.2428 197° South 379 436 36,000  Level Jacksonville Center
08:36AM 32.3458 -78.2847 200° South 374 430 36,000  Level Jacksonville Center
08:37AM 32.2428 -78.3242 198° South 383 441 36,000  Level Jacksonville Center
08:38AM 32.1419 -78.3611 197° South 383 441 36,000  Level Jacksonville Center
08:39AM 32.0408 -78.4003 198° South 383 441 36,000  Level Jacksonville Center
08:40AM 31.9442 -78.4369 198° South 376 433 36,000  Level Jacksonville Center
08:41AM 31.8411 -78.4736 197° South 376 433 36,000  Level Jacksonville Center
08:42AM 31.7400 -78.5128 198° South 382 440 36,000  Level Jacksonville Center
08:43AM 31.6350 -78.5494 197° South 382 440 36,000  Level Jacksonville Center
08:44AM 31.5319 -78.5883 198° South 389 448 36,000  Level Jacksonville Center
08:45AM 31.4247 -78.6297 198° South 394 453 36,000  Level Jacksonville Center
08:46AM 31.3236 -78.6661 197° South 394 453 36,000  Level Jacksonville Center
08:47AM 31.2186 -78.7047 197° South 394 453 36,000  Level Jacksonville Center
08:48AM 31.1133 -78.7433 197° South 394 453 36,000  Level Jacksonville Center
08:49AM 31.0122 -78.7819 198° South 394 453 36,000  Level Jacksonville Center
08:50AM 30.9028 -78.8181 196° South 394 453 36,000  Level Jacksonville Center
08:51AM 30.8039 -78.8611 201° Southwest 394 453 36,000  Level Jacksonville Center
08:52AM 30.6903 -78.8972 195° South 394 453 36,000  Level Jacksonville Center
08:53AM 30.5694 -78.9439 198° South 386 444 36,000  Level Miami Center
08:54AM 30.4647 -78.9825 198° South 394 453 36,000  Level Miami Center
08:55AM 30.3433 -79.0186 194° South 404 465 36,000  Level Miami Center
08:56AM 30.2303 -79.0450 191° South 404 465 36,000  Level Miami Center
08:57AM 30.1192 -79.0742 193° South 410 472 36,000  Level Miami Center
08:58AM 30.0103 -79.1103 196° South 417 480 36,000  Level Miami Center
08:59AM 29.8972 -79.1342 190° South 412 474 36,000  Level Miami Center
09:00AM 29.7864 -79.1606 192° South 407 468 36,000  Level Miami Center
09:01AM 29.6794 -79.1964 196° South 413 475 36,000  Level Miami Center
09:02AM 29.5664 -79.2225 191° South 418 481 36,000  Level Miami Center
09:03AM 29.4617 -79.2561 196° South 407 468 36,000  Level Miami Center
09:04AM 29.3467 -79.2750 188° South 407 468 36,000  Level Miami Center
09:05AM 29.2294 -79.3008 191° South 418 481 36,000  Level Miami Center
09:06AM 29.1264 -79.3342 196° South 412 474 36,000  Level Miami Center
09:07AM 29.0092 -79.3578 190° South 419 482 36,000  Level Miami Center
09:08AM 28.8983 -79.3861 193° South 419 482 36,000  Level Miami Center
09:09AM 28.7850 -79.4142 192° South 413 475 36,000  Level Miami Center
09:10AM 28.6697 -79.4425 192° South 413 475 36,000  Level Miami Center
09:11AM 28.5608 -79.4706 193° South 413 475 36,000  Level Miami Center
09:12AM 28.4475 -79.4986 192° South 413 475 36,000 -180 Level Miami Center
09:13AM 28.3364 -79.5267 193° South 413 475 35,700 -720 Descending Miami Center
09:14AM 28.2253 -79.5525 192° South 413 475 34,600 -1,020 Descending Miami Center
09:15AM 28.1119 -79.5825 193° South 413 475 33,700 -900 Descending Miami Center
09:16AM 27.9967 -79.6103 192° South 413 475 32,800 -900 Descending Miami Center
09:17AM 27.8814 -79.6381 192° South 419 482 31,900 -900 Descending Miami Center
09:18AM 27.7658 -79.6658 192° South 419 482 31,000 -900 Descending Miami Center
09:19AM 27.6464 -79.6958 193° South 433 498 30,100 -900 Descending Miami Center
09:20AM 27.5247 -79.7231 191° South 441 507 29,300 -1,980 Descending Miami Center
09:21AM 27.4136 -79.7508 193° South 452 520 26,200 -2,700 Descending Miami Center
09:22AM 27.2900 -79.7664 186° South 452 520 24,000 -2,340 Descending Miami Center
09:23AM 27.1633 -79.7328 167° South 427 491 21,600 -2,340 Descending Miami Center
09:24AM 27.0511 -79.6975 164° South 427 491 19,400 -2,280 Descending Miami Center
09:25AM 26.9392 -79.6622 164° South 427 491 17,100 -2,280 Descending Miami Center
09:26AM 26.8392 -79.6481 173° South 409 471 14,900 -1,800 Descending Miami Center
09:27AM 26.7317 -79.6897 199° South 376 433 13,600 -1,800 Descending Miami Center
09:28AM 26.6536 -79.7319 206° Southwest 361 415 11,700 -2,340 Descending Miami Center
09:28AM 26.6200 -79.7475 202° Southwest 360 414 10,800 -2,160 Descending Miami Center
09:29AM 26.5483 -79.7806 202° Southwest 362 417 9,100 -1,500 Descending Miami Center
09:30AM 26.4661 -79.8181 202° Southwest 340 391 8,100 -600 Descending Miami Center
09:31AM 26.3922 -79.8533 203° Southwest 311 358 8,000 -60 Descending Miami Center
09:32AM 26.3347 -79.9028 218° Southwest 289 333 8,000  Level Miami Center
09:33AM 26.2731 -79.9614 220° Southwest 283 326 8,000 -540 Level Miami Center
09:34AM 26.2258 -80.0136 225° Southwest 278 320 7,000 -540 Descending Miami Center
09:35AM 26.1767 -80.0722 227° Southwest 266 306 7,000 -60 Level Miami Center
09:36AM 26.1539 -80.1503 252° West 258 297 6,900 -300 Descending Miami Center
09:37AM 26.1503 -80.2244 267° West 247 284 6,400 -720 Descending Miami Center
09:37AM 26.1475 -80.2567 265° West 221 254 6,000 -300 Descending Miami Center
09:38AM 26.1478 -80.3283 270° West 231 266 6,000 -720 Level Miami Center
09:39AM 26.1294 -80.3950 253° West 242 278 4,600 -1,260 Descending Miami Center
09:40AM 26.0781 -80.3611 149° Southeast 238 274 3,500 -1,260 Descending Miami Center
09:41AM 26.0756 -80.2964 92° East 208 239 2,100 -1,140 Descending Miami Center
09:42AM 26.0747 -80.2383 91° East 154 177 1,200 -840 Descending Miami Center
09:43AM 26.0736 -80.1944 92° East 136 157 500 -720 Descending Miami Center
09:45AM 26.0667 -80.1500 103° East  Level FlightAware Approximate
09:52AM 26.0726 -80.1527 103° East  Level Estimated